Time;durP1;ratioP1;P1;durP2;ratioP2;P2;SDS_P1;SDS_P2;PMS_P1;PMS_P2;Temp;Humidity;BMP_temperature;BMP_pressure;BME280_temperature;BME280_humidity;BME280_pressure;Samples;Min_cycle;Max_cycle;Signal;HPM_P1;HPM_P2
2023/03/13 00:02:49;;;;;;;7.63;2.47;;;;;;;10.78;59.14;97397.28;8384571;28;20252;-71
2023/03/13 00:06:51;;;;;;;8.27;2.80;;;;;;;10.73;59.52;97395.75;8384165;28;20243;-71
2023/03/13 00:10:54;;;;;;;6.30;2.47;;;;;;;10.79;58.61;97391.16;8384143;28;20236;-71
2023/03/13 00:14:57;;;;;;;6.30;2.20;;;;;;;10.90;58.72;97386.25;8383886;28;20234;-71
2023/03/13 00:19:01;;;;;;;6.33;2.70;;;;;;;10.92;58.23;97371.44;8383916;28;20227;-71
2023/03/13 00:23:04;;;;;;;7.03;2.53;;;;;;;10.69;58.78;97376.13;8383657;28;20227;-71
2023/03/13 00:27:07;;;;;;;7.87;2.83;;;;;;;10.71;58.95;97376.03;8383599;28;20223;-71
2023/03/13 00:31:11;;;;;;;8.33;2.53;;;;;;;10.89;58.16;97374.19;8383669;28;20237;-71
2023/03/13 00:35:16;;;;;;;8.30;2.80;;;;;;;10.82;58.13;97358.16;8383377;28;20292;-71
2023/03/13 00:39:19;;;;;;;7.33;2.53;;;;;;;11.03;57.59;97373.47;8383150;28;20236;-71
2023/03/13 00:43:22;;;;;;;9.80;2.70;;;;;;;10.82;58.05;97365.94;8383354;28;20523;-71
2023/03/13 00:47:25;;;;;;;6.77;2.60;;;;;;;10.98;57.71;97380.63;8383334;28;20517;-71
2023/03/13 00:51:30;;;;;;;8.90;2.63;;;;;;;10.98;57.96;97378.03;8382895;28;20243;-71
2023/03/13 00:55:33;;;;;;;7.33;2.60;;;;;;;10.84;57.93;97363.28;8382489;28;20248;-71
2023/03/13 00:59:35;;;;;;;9.20;3.07;;;;;;;10.68;58.47;97363.25;8382564;28;20236;-69
2023/03/13 01:03:39;;;;;;;10.53;2.57;;;;;;;10.76;57.51;97354.16;8382467;28;20229;-70
2023/03/13 01:07:43;;;;;;;6.13;2.60;;;;;;;10.82;57.67;97353.00;8381431;28;20232;-69
2023/03/13 01:11:46;;;;;;;8.20;2.50;;;;;;;10.77;57.62;97352.41;8382199;28;20237;-69
2023/03/13 01:15:49;;;;;;;6.23;2.20;;;;;;;11.00;57.00;97350.28;8382163;28;20258;-69
2023/03/13 01:19:55;;;;;;;8.20;3.00;;;;;;;10.65;57.69;97338.38;8381978;28;20266;-69
2023/03/13 01:24:00;;;;;;;6.23;2.47;;;;;;;10.72;58.12;97331.94;8381671;28;20232;-69
2023/03/13 01:28:02;;;;;;;8.40;2.63;;;;;;;10.78;57.40;97333.38;8381600;28;20225;-69
2023/03/13 01:32:06;;;;;;;8.83;2.57;;;;;;;10.85;57.33;97321.75;8381736;28;20416;-69
2023/03/13 01:36:10;;;;;;;8.17;2.70;;;;;;;10.52;58.24;97309.72;8381390;28;20228;-68
2023/03/13 01:40:14;;;;;;;8.67;2.60;;;;;;;10.81;57.43;97311.63;8381266;28;20230;-68
2023/03/13 01:44:23;;;;;;;6.10;2.57;;;;;;;10.69;57.20;97301.03;8381207;28;20228;-69
2023/03/13 01:48:30;;;;;;;8.10;2.80;;;;;;;10.80;57.34;97308.22;8381026;28;20235;-69
2023/03/13 01:52:33;;;;;;;7.10;2.33;;;;;;;10.89;57.55;97301.66;8380909;28;20235;-68
2023/03/13 01:56:41;;;;;;;7.87;2.63;;;;;;;10.49;58.51;97296.97;8380722;28;20283;-69
2023/03/13 02:00:44;;;;;;;8.83;2.70;;;;;;;10.71;58.17;97294.00;8380326;28;20453;-69
2023/03/13 02:04:51;;;;;;;9.00;2.77;;;;;;;10.66;58.15;97293.44;8380447;28;20235;-68
2023/03/13 02:08:56;;;;;;;6.50;2.70;;;;;;;10.60;58.22;97291.19;8379942;28;20230;-69
2023/03/13 02:13:01;;;;;;;11.43;2.83;;;;;;;10.34;58.62;97275.31;8380178;28;20232;-69
2023/03/13 02:17:05;;;;;;;8.13;2.73;;;;;;;10.56;58.84;97279.31;8379930;28;20394;-69
2023/03/13 02:21:16;;;;;;;10.90;2.77;;;;;;;10.47;58.33;97243.59;8379924;28;20224;-69
2023/03/13 02:25:34;;;;;;;6.20;2.50;;;;;;;10.57;58.48;97257.69;8379854;28;20275;-69
2023/03/13 02:29:37;;;;;;;10.40;3.23;;;;;;;10.41;59.19;97247.34;8379482;28;20235;-69
2023/03/13 02:33:41;;;;;;;9.90;3.20;;;;;;;10.59;58.84;97255.84;8379739;28;20229;-69
2023/03/13 02:37:48;;;;;;;5.73;2.27;;;;;;;10.60;58.69;97249.75;8379117;28;20235;-69
2023/03/13 02:41:53;;;;;;;10.10;2.63;;;;;;;10.51;58.43;97247.69;8379213;28;20240;-69
2023/03/13 02:46:07;;;;;;;10.23;3.13;;;;;;;9.76;61.00;97235.25;8379399;28;20239;-69
2023/03/13 02:50:11;;;;;;;8.97;3.00;;;;;;;10.04;60.67;97235.56;8379102;28;20250;-69
2023/03/13 02:54:18;;;;;;;8.13;2.50;;;;;;;10.19;59.71;97226.97;8379150;28;20234;-69
2023/03/13 02:58:23;;;;;;;6.83;2.43;;;;;;;10.56;58.70;97237.91;8378861;28;20232;-69
2023/03/13 03:02:26;;;;;;;8.43;2.90;;;;;;;9.87;60.88;97221.78;8378967;28;20304;-69
2023/03/13 03:06:29;;;;;;;9.77;2.83;;;;;;;10.25;60.33;97223.22;8378926;28;20235;-68
2023/03/13 03:10:32;;;;;;;8.07;2.77;;;;;;;10.55;58.71;97208.59;8378919;28;20230;-68
2023/03/13 03:14:36;;;;;;;8.83;2.73;;;;;;;10.36;59.30;97208.78;8378795;28;20265;-68
2023/03/13 03:18:39;;;;;;;8.07;2.47;;;;;;;10.60;58.72;97217.84;8378658;28;20535;-69
2023/03/13 03:22:41;;;;;;;8.97;2.67;;;;;;;10.41;58.73;97212.88;8378180;28;20228;-68
2023/03/13 03:26:45;;;;;;;12.93;2.90;;;;;;;10.55;59.03;97205.19;8378500;28;20253;-69
2023/03/13 03:30:52;;;;;;;8.90;2.77;;;;;;;10.60;58.57;97210.91;8382774;28;20326;-69
2023/03/13 03:34:54;;;;;;;9.73;2.80;;;;;;;10.75;58.47;97198.84;8385131;28;20230;-69
2023/03/13 03:38:57;;;;;;;9.10;2.97;;;;;;;10.34;60.19;97191.69;8385185;28;20238;-69
2023/03/13 03:43:00;;;;;;;9.03;2.73;;;;;;;10.42;59.04;97189.50;8385123;28;20235;-69
2023/03/13 03:47:05;;;;;;;6.60;2.63;;;;;;;10.30;59.44;97183.25;8384701;28;20226;-69
2023/03/13 03:51:08;;;;;;;8.90;2.70;;;;;;;10.27;59.91;97173.03;8384628;28;20227;-69
2023/03/13 03:55:10;;;;;;;10.73;2.63;;;;;;;10.28;59.84;97173.84;8384503;28;20430;-69
2023/03/13 03:59:13;;;;;;;4.97;2.30;;;;;;;10.03;60.95;97154.50;8384645;28;20227;-69
2023/03/13 04:03:17;;;;;;;9.87;2.50;;;;;;;10.23;60.37;97168.13;8384226;28;20228;-68
2023/03/13 04:07:20;;;;;;;8.97;2.70;;;;;;;9.91;61.28;97155.19;8383924;28;20250;-69
2023/03/13 04:11:23;;;;;;;12.70;3.00;;;;;;;9.77;61.57;97153.38;8384117;28;20234;-68
2023/03/13 04:15:25;;;;;;;8.37;2.67;;;;;;;10.09;60.94;97138.69;8383952;28;20231;-69
2023/03/13 04:19:30;;;;;;;8.93;3.00;;;;;;;9.98;61.37;97135.84;8383787;28;20238;-69
2023/03/13 04:23:32;;;;;;;9.80;2.73;;;;;;;9.91;61.54;97125.00;8383892;28;20565;-69
2023/03/13 04:27:35;;;;;;;7.40;2.43;;;;;;;9.73;62.27;97119.09;8383775;28;20436;-69
2023/03/13 04:31:38;;;;;;;9.03;2.80;;;;;;;9.97;61.90;97121.22;8383449;28;20547;-68
2023/03/13 04:35:42;;;;;;;8.47;2.53;;;;;;;9.90;62.22;97120.75;8383501;28;20232;-69
2023/03/13 04:39:46;;;;;;;7.57;2.50;;;;;;;10.32;61.06;97110.72;8382631;28;20247;-69
2023/03/13 04:43:48;;;;;;;7.33;2.47;;;;;;;10.57;60.00;97108.38;8382676;28;20576;-69
2023/03/13 04:47:51;;;;;;;7.87;2.63;;;;;;;10.52;60.28;97106.97;8382862;28;20230;-69
2023/03/13 04:51:55;;;;;;;8.53;2.60;;;;;;;10.25;61.64;97102.41;8382740;28;20258;-69
2023/03/13 04:55:58;;;;;;;8.77;2.87;;;;;;;10.36;61.35;97102.66;8382669;28;20237;-69
2023/03/13 05:00:00;;;;;;;10.60;2.60;;;;;;;10.28;61.91;97110.00;8382822;28;20434;-69
2023/03/13 05:04:06;;;;;;;5.83;2.17;;;;;;;10.00;62.92;97102.13;8382544;28;20218;-69
2023/03/13 05:08:10;;;;;;;9.97;2.60;;;;;;;10.51;62.10;97095.78;8382202;28;20239;-69
2023/03/13 05:12:13;;;;;;;6.13;2.10;;;;;;;10.19;62.78;97071.72;8382021;28;20276;-68
2023/03/13 05:16:16;;;;;;;7.83;2.50;;;;;;;10.43;62.40;97086.78;8382085;28;20225;-68
2023/03/13 05:20:19;;;;;;;7.40;2.40;;;;;;;10.51;62.29;97077.66;8382151;28;20374;-69
2023/03/13 05:24:23;;;;;;;6.57;2.10;;;;;;;10.36;62.98;97065.63;8381448;28;20242;-69
2023/03/13 05:28:26;;;;;;;8.70;2.60;;;;;;;10.59;62.50;97068.63;8381888;28;20249;-69
2023/03/13 05:32:31;;;;;;;7.43;2.77;;;;;;;10.46;62.50;97071.91;8381446;28;20229;-68
2023/03/13 05:36:37;;;;;;;7.13;2.27;;;;;;;10.68;62.39;97063.72;8381273;28;20228;-69
2023/03/13 05:40:45;;;;;;;5.77;2.20;;;;;;;10.65;62.61;97052.72;8381396;28;20303;-68
2023/03/13 05:44:48;;;;;;;6.30;1.90;;;;;;;10.98;62.06;97049.03;8380898;28;20228;-68
2023/03/13 05:48:51;;;;;;;5.57;2.70;;;;;;;10.93;62.24;97042.38;8380824;28;20313;-68
2023/03/13 05:52:56;;;;;;;6.27;2.30;;;;;;;10.59;63.58;97034.97;8380509;28;20236;-68
2023/03/13 05:57:00;;;;;;;8.33;2.33;;;;;;;10.65;64.12;97034.59;8380602;28;20254;-69
2023/03/13 06:01:07;;;;;;;7.30;2.20;;;;;;;10.79;63.79;97032.00;8380695;28;20239;-69
2023/03/13 06:05:10;;;;;;;6.20;2.20;;;;;;;10.68;64.88;97034.41;8380582;28;20713;-68
2023/03/13 06:09:14;;;;;;;8.27;2.23;;;;;;;10.67;65.26;97030.16;8380545;28;20230;-68
2023/03/13 06:13:18;;;;;;;6.60;1.97;;;;;;;10.48;65.83;97017.47;8380338;28;20238;-68
2023/03/13 06:17:22;;;;;;;3.90;1.80;;;;;;;10.78;65.66;97020.00;8380790;28;20228;-69
2023/03/13 06:21:24;;;;;;;7.23;2.30;;;;;;;10.73;65.81;97012.47;8377911;28;20287;-68
2023/03/13 06:25:27;;;;;;;7.13;2.00;;;;;;;10.64;66.73;97013.06;8376433;28;20409;-68
2023/03/13 06:29:31;;;;;;;5.87;2.10;;;;;;;10.78;66.19;97014.81;8380056;28;20233;-68
2023/03/13 06:33:34;;;;;;;6.13;2.20;;;;;;;10.60;67.23;97021.91;8379814;28;20400;-69
2023/03/13 06:37:39;;;;;;;5.00;2.00;;;;;;;10.56;68.21;97023.00;8379713;28;20235;-68
2023/03/13 06:41:42;;;;;;;6.80;1.93;;;;;;;10.71;67.12;97003.97;8379054;28;20232;-69
2023/03/13 06:45:46;;;;;;;4.37;1.83;;;;;;;10.96;66.94;97013.66;8379311;28;20235;-68
2023/03/13 06:49:50;;;;;;;4.67;1.70;;;;;;;10.78;67.70;96991.50;8379061;28;20227;-69
2023/03/13 06:53:54;;;;;;;4.00;1.67;;;;;;;10.93;67.29;96984.56;8379189;28;20426;-69
2023/03/13 06:57:57;;;;;;;4.93;1.70;;;;;;;10.86;67.15;97003.97;8378996;28;20250;-68
2023/03/13 07:02:01;;;;;;;5.43;1.70;;;;;;;11.00;67.33;97003.13;8379149;28;20242;-68
2023/03/13 07:06:05;;;;;;;5.07;1.90;;;;;;;10.95;67.77;97001.66;8378244;28;20405;-69
2023/03/13 07:10:11;;;;;;;4.30;1.67;;;;;;;10.95;67.51;97000.84;8378792;28;20228;-69
2023/03/13 07:14:13;;;;;;;6.47;1.70;;;;;;;10.86;68.36;96997.03;8378890;28;20435;-68
2023/03/13 07:18:21;;;;;;;5.83;2.20;;;;;;;11.18;67.33;97002.00;8378889;28;20576;-69
2023/03/13 07:22:24;;;;;;;4.43;2.03;;;;;;;11.08;67.39;97006.94;8378674;28;20235;-69
2023/03/13 07:26:27;;;;;;;3.73;1.60;;;;;;;11.26;66.54;96981.63;8379690;28;20225;-68
2023/03/13 07:30:29;;;;;;;6.03;1.90;;;;;;;11.49;66.34;97003.50;8378408;28;20239;-68
2023/03/13 07:34:34;;;;;;;3.47;1.60;;;;;;;11.34;66.73;96988.91;8378678;28;20254;-68
2023/03/13 07:38:37;;;;;;;2.73;1.60;;;;;;;11.21;66.50;96941.38;8378685;28;20552;-69
2023/03/13 07:42:42;;;;;;;2.90;1.50;;;;;;;11.51;66.05;96988.66;8378343;28;20501;-68
2023/03/13 07:46:47;;;;;;;3.23;1.30;;;;;;;11.76;65.56;97002.66;8378068;28;20225;-68
2023/03/13 07:50:51;;;;;;;3.03;1.37;;;;;;;11.41;65.89;96953.09;8378166;28;20409;-68
2023/03/13 07:54:54;;;;;;;3.80;1.60;;;;;;;11.73;65.60;96988.13;8378211;28;20523;-68
2023/03/13 07:58:57;;;;;;;4.00;1.47;;;;;;;11.68;66.01;96979.00;8378185;28;20521;-69
2023/03/13 08:03:00;;;;;;;3.87;1.57;;;;;;;11.87;65.28;96963.06;8377963;28;20244;-68
2023/03/13 08:07:08;;;;;;;6.17;1.57;;;;;;;11.70;65.81;96975.34;8378028;28;20352;-69
2023/03/13 08:11:12;;;;;;;3.17;1.50;;;;;;;11.55;66.28;96979.75;8378070;28;20229;-68
2023/03/13 08:15:17;;;;;;;4.47;1.60;;;;;;;11.79;66.02;96986.09;8377934;28;20229;-68
2023/03/13 08:19:20;;;;;;;2.67;1.57;;;;;;;11.89;65.75;96979.34;8383782;28;20399;-68
2023/03/13 08:23:24;;;;;;;2.00;1.20;;;;;;;11.98;65.28;96976.19;8383486;28;20343;-68
2023/03/13 08:27:29;;;;;;;3.53;1.60;;;;;;;11.95;65.44;96971.19;8383630;28;20224;-68
2023/03/13 08:31:34;;;;;;;4.47;1.67;;;;;;;12.12;65.09;96947.56;8383531;28;20232;-68
2023/03/13 08:35:37;;;;;;;2.47;1.50;;;;;;;12.24;64.74;96968.44;8383285;28;20233;-69
2023/03/13 08:39:44;;;;;;;3.07;1.93;;;;;;;12.17;65.54;96968.03;8378475;28;20224;-68
2023/03/13 08:43:47;;;;;;;2.83;1.60;;;;;;;12.12;65.87;96957.13;8378216;28;20229;-68
2023/03/13 08:47:52;;;;;;;2.53;1.30;;;;;;;12.37;65.04;96956.28;8378348;28;20225;-68
2023/03/13 08:51:55;;;;;;;3.13;1.20;;;;;;;12.46;65.23;96960.03;8378133;28;20237;-69
2023/03/13 08:56:00;;;;;;;2.00;1.30;;;;;;;12.54;65.64;96965.53;8378206;28;20244;-69
2023/03/13 09:00:05;;;;;;;3.43;1.20;;;;;;;12.31;65.15;96899.59;8378055;28;20228;-69
2023/03/13 09:04:08;;;;;;;2.93;1.10;;;;;;;13.42;69.40;96970.69;8378331;28;20221;-68
2023/03/13 09:08:11;;;;;;;1.50;1.20;;;;;;;13.47;67.15;96944.34;8378052;28;20248;-69
2023/03/13 09:12:15;;;;;;;1.93;1.40;;;;;;;13.25;64.25;96935.47;8377861;28;20233;-68
2023/03/13 09:16:33;;;;;;;1.83;1.20;;;;;;;13.62;63.98;96940.63;8377654;28;20270;-69
2023/03/13 09:20:37;;;;;;;1.23;0.80;;;;;;;13.38;66.08;96948.44;8377885;28;20411;-69
2023/03/13 09:24:41;;;;;;;1.03;0.60;;;;;;;13.80;65.74;96937.63;8378862;28;20235;-68
2023/03/13 09:28:48;;;;;;;1.13;0.53;;;;;;;14.30;63.61;96937.38;8380973;28;20378;-68
2023/03/13 09:32:50;;;;;;;1.77;0.73;;;;;;;14.08;65.02;96939.00;8381321;28;20240;-68
2023/03/13 09:36:56;;;;;;;0.50;0.50;;;;;;;14.34;64.02;96947.47;8381325;28;20232;-68
2023/03/13 09:41:04;;;;;;;0.33;0.33;;;;;;;14.07;64.67;96943.41;8381251;28;20228;-68
2023/03/13 09:45:14;;;;;;;1.00;0.60;;;;;;;13.96;63.73;96887.88;8381215;28;20294;-69
2023/03/13 09:49:32;;;;;;;1.53;0.40;;;;;;;14.22;63.69;96925.78;8380940;28;20224;-69
2023/03/13 09:53:39;;;;;;;0.83;0.60;;;;;;;14.26;63.75;96936.81;8380781;28;20230;-69
2023/03/13 09:57:46;;;;;;;0.97;0.80;;;;;;;14.36;63.59;96942.16;8380303;28;20230;-69
2023/03/13 10:01:54;;;;;;;1.53;0.70;;;;;;;14.37;63.91;96938.59;8380641;28;20236;-69
2023/03/13 10:05:58;;;;;;;0.90;0.60;;;;;;;14.41;63.78;96938.25;8380125;28;20303;-69
2023/03/13 10:10:04;;;;;;;0.90;0.60;;;;;;;13.83;64.24;96869.75;8380473;28;20420;-69
2023/03/13 10:14:14;;;;;;;1.08;0.60;;;;;;;14.36;63.27;96929.13;8380045;28;20431;-69
2023/03/13 10:18:21;;;;;;;1.00;0.70;;;;;;;14.19;63.59;96939.03;8380069;28;20235;-69
2023/03/13 10:22:26;;;;;;;0.60;0.60;;;;;;;14.30;62.96;96914.78;8380135;28;20708;-69
2023/03/13 10:26:30;;;;;;;0.75;0.50;;;;;;;14.47;62.63;96931.75;8378865;28;20421;-69
2023/03/13 10:30:34;;;;;;;0.60;0.60;;;;;;;14.30;62.87;96932.19;8379795;28;20220;-69
2023/03/13 10:34:53;;;;;;;1.47;0.60;;;;;;;14.18;63.06;96929.56;8379428;28;20248;-69
2023/03/13 10:38:55;;;;;;;0.83;0.60;;;;;;;14.18;63.30;96932.16;8378620;28;20255;-69
2023/03/13 10:43:04;;;;;;;0.73;0.70;;;;;;;14.08;63.55;96921.59;8379526;28;20237;-69
2023/03/13 10:47:13;;;;;;;0.60;0.60;;;;;;;14.41;63.24;96942.59;8379033;28;20235;-69
2023/03/13 10:51:22;;;;;;;1.70;0.70;;;;;;;14.42;62.66;96942.50;8379218;28;20550;-69
2023/03/13 10:55:26;;;;;;;0.90;0.70;;;;;;;14.48;63.07;96934.22;8378529;28;20240;-69
2023/03/13 10:59:29;;;;;;;1.27;0.67;;;;;;;14.47;63.15;96940.38;8378947;28;20236;-69
2023/03/13 11:03:33;;;;;;;1.13;0.60;;;;;;;14.58;62.94;96921.38;8378802;28;20234;-69
2023/03/13 11:07:39;;;;;;;1.00;0.67;;;;;;;14.37;61.63;96845.66;8378864;28;20584;-69
2023/03/13 11:11:49;;;;;;;1.43;0.70;;;;;;;15.06;60.77;96891.56;8378107;28;20504;-69
2023/03/13 11:15:56;;;;;;;1.23;0.80;;;;;;;14.87;60.99;96887.00;8378436;28;20228;-69
2023/03/13 11:20:05;;;;;;;1.37;0.70;;;;;;;15.15;59.61;96884.78;8378784;28;20536;-69
2023/03/13 11:24:13;;;;;;;0.87;0.87;;;;;;;15.37;59.42;96887.31;8378619;28;20229;-70
2023/03/13 11:28:26;;;;;;;1.87;0.90;;;;;;;15.09;59.49;96886.09;8378309;28;20424;-69
2023/03/13 11:32:38;;;;;;;1.53;0.90;;;;;;;15.17;59.70;96896.75;8378393;28;20240;-69
2023/03/13 11:36:49;;;;;;;2.63;1.00;;;;;;;15.07;59.86;96890.59;8377878;28;20530;-69
2023/03/13 11:41:01;;;;;;;1.53;0.90;;;;;;;14.93;60.30;96901.31;8378337;28;20331;-68
2023/03/13 11:45:09;;;;;;;1.27;0.90;;;;;;;14.88;59.63;96893.84;8378296;28;20225;-68
2023/03/13 11:49:40;;;;;;;1.60;1.07;;;;;;;15.07;59.18;96895.00;8378309;28;20251;-69
2023/03/13 11:53:57;;;;;;;1.17;0.90;;;;;;;15.02;59.35;96893.59;8382862;28;20232;-69
2023/03/13 11:58:14;;;;;;;1.13;1.00;;;;;;;15.06;58.89;96881.16;8384210;28;20238;-69
2023/03/13 12:02:21;;;;;;;1.23;1.10;;;;;;;15.00;59.18;96860.75;8384314;28;20233;-69
2023/03/13 12:06:29;;;;;;;2.20;1.40;;;;;;;15.56;58.33;96852.72;8383807;28;20232;-69
2023/03/13 12:10:38;;;;;;;2.70;1.40;;;;;;;15.53;57.93;96839.94;8384061;28;20516;-69
2023/03/13 12:14:45;;;;;;;1.13;1.00;;;;;;;15.76;57.25;96832.84;8383768;28;20230;-69
2023/03/13 12:18:49;;;;;;;2.57;1.50;;;;;;;15.76;56.96;96803.28;8383740;28;20229;-69
2023/03/13 12:22:56;;;;;;;1.30;1.20;;;;;;;15.81;56.73;96811.56;8383674;28;20233;-69
2023/03/13 12:27:02;;;;;;;1.80;1.30;;;;;;;15.90;56.90;96813.41;8383531;28;20237;-69
2023/03/13 12:31:17;;;;;;;1.57;1.30;;;;;;;16.94;53.86;96798.34;8383461;28;20231;-69
2023/03/13 12:35:24;;;;;;;2.33;1.40;;;;;;;17.28;53.12;96795.34;8383120;28;20278;-69
2023/03/13 12:39:31;;;;;;;2.30;1.17;;;;;;;17.39;52.43;96781.31;8383177;28;20234;-69
2023/03/13 12:43:37;;;;;;;1.27;1.17;;;;;;;17.89;50.87;96780.25;8383116;28;20239;-69
2023/03/13 12:47:57;;;;;;;1.30;1.17;;;;;;;17.76;51.11;96759.59;8383120;28;20236;-69
2023/03/13 12:52:25;;;;;;;1.80;1.20;;;;;;;18.47;49.41;96739.88;8383149;28;20236;-69
2023/03/13 12:56:45;;;;;;;2.37;1.27;;;;;;;18.47;49.16;96748.56;8381331;28;20225;-69
2023/03/13 13:00:49;;;;;;;1.47;1.20;;;;;;;18.88;48.34;96728.00;8382507;28;20236;-69
2023/03/13 13:04:55;;;;;;;1.67;1.30;;;;;;;19.23;47.39;96718.47;8381974;28;20237;-69
2023/03/13 13:09:08;;;;;;;2.87;1.27;;;;;;;19.13;47.16;96713.31;8382519;28;20237;-69
2023/03/13 13:13:19;;;;;;;1.43;1.20;;;;;;;19.37;46.15;96721.53;8381989;28;20459;-69
2023/03/13 13:17:31;;;;;;;2.57;1.07;;;;;;;19.62;45.23;96704.94;8382466;28;20433;-69
2023/03/13 13:21:36;;;;;;;2.97;1.30;;;;;;;19.07;46.42;96703.41;8381843;28;20279;-69
2023/03/13 13:25:39;;;;;;;1.70;1.30;;;;;;;19.29;45.90;96693.44;8381983;28;20239;-70
2023/03/13 13:29:58;;;;;;;2.13;1.30;;;;;;;19.56;45.52;96687.19;8381443;28;20323;-69
2023/03/13 13:34:00;;;;;;;2.97;1.40;;;;;;;19.17;45.41;96661.34;8381425;28;20232;-69
2023/03/13 13:38:35;;;;;;;1.30;1.10;;;;;;;18.90;46.27;96660.50;8381629;28;20225;-69
2023/03/13 13:42:48;;;;;;;2.00;1.50;;;;;;;19.08;46.51;96657.84;8381258;28;20352;-69
2023/03/13 13:46:53;;;;;;;2.20;1.27;;;;;;;19.35;45.43;96656.06;8380640;28;20419;-68
2023/03/13 13:51:22;;;;;;;3.97;1.23;;;;;;;18.99;46.12;96644.84;8380850;28;20229;-68
2023/03/13 13:55:34;;;;;;;1.60;1.50;;;;;;;19.06;46.63;96632.75;8380954;28;20240;-69
2023/03/13 13:59:41;;;;;;;1.93;1.13;;;;;;;18.56;47.15;96621.84;8380659;28;20532;-70
2023/03/13 14:03:44;;;;;;;5.33;1.30;;;;;;;18.29;47.70;96616.66;8380318;28;20263;-69
2023/03/13 14:07:51;;;;;;;1.80;1.33;;;;;;;18.05;48.56;96607.59;8380529;28;20236;-70
2023/03/13 14:11:56;;;;;;;1.53;1.30;;;;;;;18.21;48.22;96604.31;8380455;28;20402;-70
2023/03/13 14:16:19;;;;;;;2.63;1.30;;;;;;;18.28;48.71;96589.66;8379360;28;20244;-70
2023/03/13 14:20:31;;;;;;;2.70;1.37;;;;;;;18.35;48.41;96579.38;8380456;28;20224;-69
2023/03/13 14:24:37;;;;;;;2.17;1.10;;;;;;;18.26;48.97;96580.28;8379979;28;20229;-69
2023/03/13 14:28:49;;;;;;;1.93;1.30;;;;;;;18.06;48.96;96574.38;8379852;28;20232;-69
2023/03/13 14:32:53;;;;;;;2.60;1.60;;;;;;;18.02;49.52;96565.16;8380009;28;20236;-70
2023/03/13 14:36:58;;;;;;;1.30;1.20;;;;;;;18.30;48.56;96558.06;8379798;28;20225;-70
2023/03/13 14:41:24;;;;;;;3.47;1.10;;;;;;;18.54;48.54;96554.78;8379773;28;20221;-70
2023/03/13 14:45:30;;;;;;;5.90;1.43;;;;;;;18.68;47.86;96542.97;8379666;28;20317;-70
2023/03/13 14:49:33;;;;;;;4.10;1.30;;;;;;;19.15;46.73;96537.34;8379364;28;20220;-70
2023/03/13 14:53:36;;;;;;;1.73;1.20;;;;;;;19.36;45.97;96531.69;8379470;28;20406;-70
2023/03/13 14:57:54;;;;;;;1.30;1.20;;;;;;;19.36;46.02;96509.88;8378947;28;20424;-70
2023/03/13 15:02:03;;;;;;;1.43;1.10;;;;;;;19.51;45.36;96489.91;8378796;28;20281;-70
2023/03/13 15:06:18;;;;;;;1.77;1.30;;;;;;;19.73;45.32;96481.47;8379060;28;20298;-70
2023/03/13 15:10:22;;;;;;;1.77;1.47;;;;;;;19.58;45.32;96416.59;8379145;28;20584;-69
2023/03/13 15:14:36;;;;;;;1.73;1.20;;;;;;;19.68;45.78;96452.22;8378827;28;20229;-69
2023/03/13 15:18:40;;;;;;;2.67;1.27;;;;;;;19.71;45.31;96433.50;8379050;28;20559;-68
2023/03/13 15:22:45;;;;;;;2.07;1.30;;;;;;;19.69;45.27;96422.34;8378499;28;20267;-69
2023/03/13 15:26:48;;;;;;;2.07;1.47;;;;;;;19.67;45.49;96416.44;8382875;28;20232;-69
2023/03/13 15:30:51;;;;;;;1.70;1.30;;;;;;;20.09;44.01;96397.09;8383837;28;20509;-70
2023/03/13 15:34:57;;;;;;;1.30;1.20;;;;;;;19.39;45.76;96386.22;8385392;28;20233;-70
2023/03/13 15:39:00;;;;;;;1.47;1.23;;;;;;;19.50;45.45;96384.09;8385264;28;20232;-70
2023/03/13 15:43:03;;;;;;;1.30;1.20;;;;;;;19.77;45.14;96366.41;8385178;28;20229;-70
2023/03/13 15:47:10;;;;;;;1.50;1.20;;;;;;;19.58;45.26;96358.84;8384947;28;20235;-70
2023/03/13 15:51:16;;;;;;;14.20;1.77;;;;;;;18.95;46.83;96348.72;8384988;28;20223;-70
2023/03/13 15:55:19;;;;;;;3.33;1.60;;;;;;;18.92;46.93;96340.34;8384686;28;20550;-70
2023/03/13 15:59:21;;;;;;;3.90;1.40;;;;;;;18.87;46.88;96334.78;8385052;28;20540;-70
2023/03/13 16:03:27;;;;;;;2.47;1.00;;;;;;;18.89;46.77;96320.50;8384337;28;20237;-70
2023/03/13 16:07:31;;;;;;;4.37;1.60;;;;;;;18.31;48.40;96310.75;8384463;28;20229;-70
2023/03/13 16:11:34;;;;;;;1.67;1.40;;;;;;;18.47;47.95;96308.22;8384314;28;20237;-71
2023/03/13 16:15:39;;;;;;;1.83;1.50;;;;;;;18.20;48.57;96303.16;8383687;28;20548;-70
2023/03/13 16:19:42;;;;;;;1.77;1.50;;;;;;;18.09;48.69;96296.41;8383003;28;20233;-70
2023/03/13 16:23:46;;;;;;;1.73;1.40;;;;;;;18.05;49.19;96295.91;8383724;28;20548;-70
2023/03/13 16:27:49;;;;;;;2.67;1.50;;;;;;;17.92;49.52;96280.59;8383486;28;20225;-69
2023/03/13 16:31:51;;;;;;;2.30;1.50;;;;;;;17.76;49.76;96276.06;8383376;28;20229;-70
2023/03/13 16:35:54;;;;;;;2.10;1.70;;;;;;;17.51;49.91;96251.50;8382490;28;20403;-70
2023/03/13 16:39:58;;;;;;;2.97;1.47;;;;;;;17.55;50.22;96258.09;8382895;28;20240;-70
2023/03/13 16:44:01;;;;;;;4.17;1.80;;;;;;;17.64;50.58;96256.34;8382691;28;20241;-71
2023/03/13 16:48:04;;;;;;;1.90;1.50;;;;;;;17.60;50.44;96262.84;8382556;28;20239;-70
2023/03/13 16:52:10;;;;;;;3.87;1.70;;;;;;;17.46;50.53;96248.53;8382977;28;20229;-69
2023/03/13 16:56:24;;;;;;;2.57;1.80;;;;;;;17.36;51.43;96260.88;8382397;28;20531;-70
2023/03/13 17:00:29;;;;;;;5.33;1.80;;;;;;;17.32;51.29;96254.31;8382614;28;20224;-69
2023/03/13 17:04:35;;;;;;;1.70;1.53;;;;;;;17.36;51.07;96261.72;8381898;28;20227;-70
2023/03/13 17:08:38;;;;;;;3.33;1.90;;;;;;;17.11;51.61;96247.59;8381986;28;20253;-70
2023/03/13 17:12:42;;;;;;;4.37;1.70;;;;;;;17.23;51.57;96252.59;8381997;28;20416;-70
2023/03/13 17:16:46;;;;;;;2.07;1.60;;;;;;;17.05;51.57;96226.47;8381696;28;20236;-71
2023/03/13 17:20:49;;;;;;;3.03;2.00;;;;;;;17.07;52.04;96242.84;8381376;28;20235;-70
2023/03/13 17:24:52;;;;;;;4.20;2.27;;;;;;;16.99;52.38;96230.50;8381514;28;20251;-70
2023/03/13 17:28:57;;;;;;;4.87;2.67;;;;;;;16.98;52.13;96227.09;8381402;28;20255;-71
2023/03/13 17:33:00;;;;;;;3.33;2.60;;;;;;;16.90;52.30;96213.91;8381447;28;20225;-71
2023/03/13 17:37:08;;;;;;;3.70;2.00;;;;;;;16.87;52.58;96205.56;8381372;28;20235;-69
2023/03/13 17:41:12;;;;;;;2.07;1.70;;;;;;;16.83;52.65;96197.22;8380661;28;20316;-70
2023/03/13 17:45:17;;;;;;;2.10;1.70;;;;;;;16.73;52.70;96196.41;8380831;28;20235;-70
2023/03/13 17:49:22;;;;;;;1.80;1.70;;;;;;;16.70;52.65;96183.66;8380478;28;20529;-69
2023/03/13 17:53:25;;;;;;;2.00;1.60;;;;;;;16.73;52.92;96175.50;8380850;28;20255;-70
2023/03/13 17:57:28;;;;;;;1.87;1.73;;;;;;;16.64;52.96;96176.41;8380509;28;20232;-70
2023/03/13 18:01:34;;;;;;;4.07;2.70;;;;;;;16.49;53.32;96165.66;8380505;28;20224;-70
2023/03/13 18:05:37;;;;;;;2.50;2.10;;;;;;;16.33;53.57;96150.63;8380365;28;20247;-69
2023/03/13 18:09:40;;;;;;;3.73;2.23;;;;;;;16.38;53.74;96146.63;8380255;28;20231;-70
2023/03/13 18:13:43;;;;;;;3.70;1.90;;;;;;;16.43;53.35;96140.97;8379697;28;20520;-70
2023/03/13 18:17:47;;;;;;;2.33;1.80;;;;;;;16.39;53.73;96129.97;8379600;28;20242;-70
2023/03/13 18:21:53;;;;;;;3.03;2.10;;;;;;;16.41;53.73;96109.75;8379532;28;20239;-70
2023/03/13 18:25:56;;;;;;;2.63;1.47;;;;;;;16.13;54.38;96124.66;8379587;28;20230;-70
2023/03/13 18:29:59;;;;;;;2.17;1.83;;;;;;;16.11;54.56;96108.31;8379650;28;20232;-70
2023/03/13 18:34:04;;;;;;;4.00;1.90;;;;;;;16.16;54.27;96087.81;8379470;28;20241;-69
2023/03/13 18:38:09;;;;;;;2.40;1.70;;;;;;;16.08;54.89;96079.06;8379577;28;20236;-69
2023/03/13 18:42:12;;;;;;;2.67;2.03;;;;;;;16.06;55.14;96067.97;8379411;28;20249;-68
2023/03/13 18:46:19;;;;;;;4.20;2.07;;;;;;;16.08;55.09;96064.22;8379353;28;20427;-69
2023/03/13 18:50:29;;;;;;;3.57;2.40;;;;;;;15.96;55.39;96062.81;8378850;28;20225;-69
2023/03/13 18:54:31;;;;;;;4.37;2.50;;;;;;;15.86;55.88;96094.19;8378951;28;20256;-69
2023/03/13 18:58:34;;;;;;;7.60;2.43;;;;;;;16.03;55.53;96064.69;8378562;28;20229;-68
2023/03/13 19:02:37;;;;;;;3.90;2.20;;;;;;;16.05;55.22;96068.91;8378247;28;20243;-69
2023/03/13 19:06:42;;;;;;;3.53;2.00;;;;;;;16.04;55.12;96109.88;8378541;28;20414;-69
2023/03/13 19:10:44;;;;;;;4.57;1.87;;;;;;;15.28;61.12;96266.53;8378438;28;20282;-68
2023/03/13 19:14:48;;;;;;;5.23;1.90;;;;;;;14.44;62.02;96203.50;8378707;28;20272;-67
2023/03/13 19:18:51;;;;;;;9.37;1.83;;;;;;;14.87;64.23;96178.06;8378447;28;20415;-67